createdAt,value
2018-11-21T00:00:11.743Z,1.90
2018-11-21T00:02:59.856Z,1.90
2018-11-21T00:05:47.916Z,1.80
2018-11-21T00:08:36.734Z,1.70
2018-11-21T00:11:25.750Z,1.80
2018-11-21T00:14:14.211Z,1.70
2018-11-21T00:17:02.772Z,1.70
2018-11-21T00:22:39.050Z,1.70
2018-11-21T00:25:27.383Z,1.70
2018-11-21T00:28:16.074Z,1.60
2018-11-21T00:33:52.754Z,1.60
2018-11-21T00:36:40.806Z,1.60
2018-11-21T00:39:29.363Z,1.50
2018-11-21T00:42:18.011Z,1.50
2018-11-21T00:45:07.089Z,1.40
2018-11-21T00:47:55.395Z,1.40
2018-11-21T00:50:24.684Z,1.50
2018-11-21T00:53:13.150Z,1.50
2018-11-21T00:58:56.882Z,1.40
2018-11-21T01:01:45.230Z,1.40
2018-11-21T01:04:33.928Z,1.40
2018-11-21T01:07:22.229Z,1.50
2018-11-21T01:10:10.947Z,1.50
2018-11-21T01:12:59.022Z,1.50
2018-11-21T01:15:47.390Z,1.50
2018-11-21T01:18:35.655Z,1.50
2018-11-21T01:24:11.778Z,1.60
2018-11-21T01:27:00.529Z,1.50
2018-11-21T01:29:48.838Z,1.40
2018-11-21T01:35:25.025Z,1.40
2018-11-21T01:41:01.981Z,1.50
2018-11-21T01:43:50.038Z,1.50
2018-11-21T01:46:38.370Z,1.50
2018-11-21T01:49:27.224Z,1.50
2018-11-21T01:52:15.934Z,1.50
2018-11-21T01:55:04.852Z,1.40
2018-11-21T01:57:53.985Z,1.30
2018-11-21T02:00:42.259Z,1.40
2018-11-21T02:03:11.295Z,1.40
2018-11-21T02:05:59.488Z,1.40
2018-11-21T02:08:48.187Z,1.40
2018-11-21T02:14:12.420Z,1.50
2018-11-21T02:17:00.504Z,1.40
2018-11-21T02:19:49.022Z,1.40
2018-11-21T02:22:37.594Z,1.40
2018-11-21T02:25:26.240Z,1.40
2018-11-21T02:28:14.562Z,1.30
2018-11-21T02:31:03.287Z,1.20
2018-11-21T02:42:21.785Z,1.10
2018-11-21T02:44:50.858Z,1.10
2018-11-21T02:47:20.708Z,1.00
2018-11-21T02:49:50.045Z,1.10
2018-11-21T02:52:18.644Z,1.00
2018-11-21T02:54:47.592Z,1.10
2018-11-21T02:57:36.593Z,1.10
2018-11-21T03:00:25.858Z,1.00
2018-11-21T03:03:14.383Z,1.00
2018-11-21T03:05:55.060Z,1.00
2018-11-21T03:08:36.264Z,0.90
2018-11-21T03:11:17.222Z,0.90
2018-11-21T03:13:58.915Z,0.90
2018-11-21T03:16:39.450Z,0.90
2018-11-21T03:19:20.883Z,0.90
2018-11-21T03:22:01.714Z,0.90
2018-11-21T03:24:42.784Z,0.80
2018-11-21T03:27:24.013Z,0.80
2018-11-21T03:30:05.845Z,0.80
2018-11-21T03:32:47.209Z,0.70
2018-11-21T03:35:16.733Z,0.70
2018-11-21T03:38:04.879Z,0.70
2018-11-21T03:40:53.371Z,0.70
2018-11-21T03:43:41.432Z,0.60
2018-11-21T03:46:29.541Z,0.60
2018-11-21T03:49:18.104Z,0.60
2018-11-21T03:52:06.853Z,0.60
2018-11-21T03:54:55.219Z,0.60
2018-11-21T03:57:43.761Z,0.60
2018-11-21T04:00:31.660Z,0.60
2018-11-21T04:03:19.698Z,0.50
2018-11-21T04:06:08.019Z,0.50
2018-11-21T04:08:56.722Z,0.50
2018-11-21T04:11:45.363Z,0.50
2018-11-21T04:14:34.190Z,0.40
2018-11-21T04:17:22.394Z,0.40
2018-11-21T04:20:11.005Z,0.40
2018-11-21T04:22:59.768Z,0.40
2018-11-21T04:25:48.225Z,0.30
2018-11-21T04:28:36.366Z,0.30
2018-11-21T04:31:25.063Z,0.30
2018-11-21T04:34:13.340Z,0.30
2018-11-21T04:39:55.160Z,0.30
2018-11-21T04:42:44.051Z,0.30
2018-11-21T04:45:32.409Z,0.30
2018-11-21T04:48:20.727Z,0.30
2018-11-21T04:51:09.394Z,0.20
2018-11-21T04:53:39.137Z,0.20
2018-11-21T04:56:27.461Z,0.20
2018-11-21T04:58:57.086Z,0.10
2018-11-21T05:01:45.286Z,0.10
2018-11-21T05:04:15.149Z,0.10
2018-11-21T05:07:03.496Z,0.10
2018-11-21T05:09:51.799Z,0.10
2018-11-21T05:12:39.864Z,0.00
2018-11-21T05:15:28.065Z,0.00
2018-11-21T05:18:16.527Z,0.00
2018-11-21T05:21:04.652Z,0.00
2018-11-21T05:23:41.989Z,0.00
2018-11-21T05:26:30.640Z,0.00
2018-11-21T05:29:18.833Z,0.00
2018-11-21T05:32:06.683Z,-0.10
2018-11-21T05:34:55.334Z,-0.10
2018-11-21T05:37:43.997Z,0.00
2018-11-21T05:40:32.352Z,0.00
2018-11-21T05:43:28.745Z,-0.10
2018-11-21T05:46:16.845Z,-0.20
2018-11-21T05:49:05.588Z,-0.30
2018-11-21T05:51:54.041Z,-0.30
2018-11-21T05:54:42.083Z,-0.30
2018-11-21T05:57:30.061Z,-0.20
2018-11-21T06:00:18.758Z,-0.20
2018-11-21T06:03:07.092Z,-0.10
2018-11-21T06:05:55.501Z,-0.20
2018-11-21T06:08:43.803Z,-0.20
2018-11-21T06:11:32.319Z,-0.20
2018-11-21T06:17:28.261Z,-0.20
2018-11-21T06:20:16.888Z,-0.20
2018-11-21T06:23:05.405Z,-0.10
2018-11-21T06:25:53.871Z,-0.10
2018-11-21T06:28:42.507Z,-0.10
2018-11-21T06:31:30.849Z,-0.10
2018-11-21T06:34:19.176Z,-0.10
2018-11-21T06:37:07.746Z,-0.10
2018-11-21T06:39:56.525Z,-0.10
2018-11-21T06:43:03.990Z,-0.10
2018-11-21T06:45:52.644Z,0.00
2018-11-21T06:48:41.622Z,0.00
2018-11-21T06:51:35.162Z,0.00
2018-11-21T06:54:18.476Z,0.10
2018-11-21T06:57:06.952Z,0.10
2018-11-21T06:59:55.231Z,0.00
2018-11-21T07:02:43.899Z,0.00
2018-11-21T07:05:32.533Z,0.10
2018-11-21T07:08:21.287Z,0.10
2018-11-21T07:11:09.563Z,0.10
2018-11-21T07:13:58.136Z,0.10
2018-11-21T07:16:45.851Z,0.10
2018-11-21T07:19:34.765Z,0.20
2018-11-21T07:22:22.806Z,0.30
2018-11-21T07:28:13.202Z,0.40
2018-11-21T07:30:59.842Z,0.50
2018-11-21T07:33:29.591Z,0.50
2018-11-21T07:36:17.883Z,0.40
2018-11-21T07:39:08.531Z,0.50
2018-11-21T07:41:57.699Z,0.60
2018-11-21T07:44:45.995Z,0.70
2018-11-21T07:47:34.687Z,0.80
2018-11-21T07:50:23.251Z,0.90
2018-11-21T07:53:11.601Z,0.90
2018-11-21T07:56:00.330Z,1.00
2018-11-21T07:58:48.759Z,1.00
2018-11-21T08:01:45.003Z,1.10
2018-11-21T08:04:39.622Z,1.20
2018-11-21T08:07:47.059Z,1.20
2018-11-21T08:10:48.042Z,1.20
2018-11-21T08:13:55.503Z,1.20
2018-11-21T08:17:02.795Z,1.30
2018-11-21T08:20:03.065Z,1.40
2018-11-21T08:23:03.534Z,1.50
2018-11-21T08:26:03.377Z,1.60
2018-11-21T08:28:44.785Z,1.60
2018-11-21T08:31:25.904Z,1.90
2018-11-21T08:34:07.117Z,2.00
2018-11-21T08:36:47.983Z,1.90
2018-11-21T08:39:29.343Z,2.00
2018-11-21T08:42:09.957Z,2.10
2018-11-21T08:44:51.374Z,2.00
2018-11-21T08:47:20.585Z,2.10
2018-11-21T08:50:10.168Z,2.00
2018-11-21T08:52:58.709Z,2.20
2018-11-21T08:55:47.885Z,2.10
2018-11-21T08:58:36.732Z,2.30
2018-11-21T09:01:25.235Z,2.50
2018-11-21T09:04:13.873Z,2.50
2018-11-21T09:07:02.404Z,2.70
2018-11-21T09:09:51.249Z,2.70
2018-11-21T09:12:39.973Z,2.70
2018-11-21T09:15:11.639Z,2.70
2018-11-21T09:18:00.510Z,2.80
2018-11-21T09:20:48.979Z,3.00
2018-11-21T09:23:36.899Z,3.10
2018-11-21T09:26:25.614Z,3.10
2018-11-21T09:29:13.964Z,3.20
2018-11-21T09:32:02.848Z,3.40
2018-11-21T09:37:27.589Z,3.50
2018-11-21T09:40:17.293Z,3.60
2018-11-21T09:43:08.843Z,3.70
2018-11-21T09:48:20.723Z,3.70
2018-11-21T09:59:19.105Z,3.70
2018-11-21T10:02:26.955Z,3.70
2018-11-21T10:05:15.539Z,3.90
2018-11-21T10:08:23.251Z,4.10
2018-11-21T10:11:19.595Z,3.90
2018-11-21T10:22:34.664Z,3.80
2018-11-21T10:25:23.651Z,3.80
2018-11-21T10:31:01.245Z,3.90
2018-11-21T10:33:50.110Z,3.80
2018-11-21T10:36:38.781Z,3.70
2018-11-21T10:39:27.749Z,3.70
2018-11-21T10:42:16.497Z,3.80
2018-11-21T10:45:04.805Z,3.80
2018-11-21T10:47:53.093Z,3.80
2018-11-21T10:56:52.995Z,4.10
2018-11-21T10:59:41.544Z,4.00
2018-11-21T11:02:49.201Z,4.20
2018-11-21T11:05:36.867Z,3.90
2018-11-21T11:08:44.085Z,4.20
2018-11-21T11:11:51.707Z,4.10
2018-11-21T11:14:58.950Z,4.20
2018-11-21T11:18:06.610Z,4.00
2018-11-21T11:20:55.929Z,3.90
2018-11-21T11:23:54.286Z,3.80
2018-11-21T11:27:02.066Z,3.90
2018-11-21T11:29:50.876Z,4.00
2018-11-21T11:32:58.198Z,4.00
2018-11-21T11:35:46.864Z,4.00
2018-11-21T11:38:54.567Z,4.30
2018-11-21T11:42:01.603Z,4.20
2018-11-21T11:45:08.965Z,4.20
2018-11-21T11:47:57.434Z,4.40
2018-11-21T11:51:04.682Z,4.30
2018-11-21T11:54:11.926Z,4.40
2018-11-21T11:57:19.257Z,4.20
2018-11-21T12:00:28.359Z,4.30
2018-11-21T12:03:35.611Z,4.50
2018-11-21T12:06:43.331Z,4.40
2018-11-21T12:09:50.401Z,4.40
2018-11-21T12:12:58.037Z,4.40
2018-11-21T12:16:05.349Z,4.30
2018-11-21T12:19:13.045Z,4.20
2018-11-21T12:22:20.719Z,4.10
2018-11-21T12:25:28.354Z,4.10
2018-11-21T12:28:34.460Z,4.30
2018-11-21T12:31:34.045Z,4.30
2018-11-21T12:34:41.782Z,4.50
2018-11-21T12:37:49.108Z,4.40
2018-11-21T12:40:56.456Z,4.40
2018-11-21T12:43:44.741Z,4.30
2018-11-21T12:46:52.160Z,4.20
2018-11-21T12:49:59.620Z,4.30
2018-11-21T12:53:06.523Z,4.30
2018-11-21T12:56:13.762Z,4.20
2018-11-21T13:05:35.193Z,4.70
2018-11-21T13:12:23.014Z,4.20
2018-11-21T13:15:30.401Z,4.20
2018-11-21T13:18:38.020Z,4.30
2018-11-21T13:27:29.187Z,4.10
2018-11-21T13:30:17.597Z,4.10
2018-11-21T13:33:05.965Z,4.10
2018-11-21T13:36:09.361Z,4.20
2018-11-21T13:39:19.195Z,4.20
2018-11-21T13:42:10.636Z,4.30
2018-11-21T13:45:18.758Z,4.20
2018-11-21T13:48:25.710Z,4.30
2018-11-21T13:51:33.133Z,4.20
2018-11-21T13:54:21.552Z,4.00
2018-11-21T13:57:09.635Z,4.00
2018-11-21T13:59:58.080Z,3.90
2018-11-21T14:02:27.803Z,4.00
2018-11-21T14:05:16.499Z,4.00
2018-11-21T14:08:04.948Z,4.10
2018-11-21T14:10:53.664Z,4.10
2018-11-21T14:13:42.082Z,4.00
2018-11-21T14:16:30.485Z,3.80
2018-11-21T14:19:18.293Z,3.70
2018-11-21T14:22:07.395Z,3.70
2018-11-21T14:24:36.855Z,3.70
2018-11-21T14:27:25.399Z,3.70
2018-11-21T14:29:54.304Z,3.80
2018-11-21T14:32:43.332Z,3.80
2018-11-21T14:35:30.917Z,3.90
2018-11-21T14:38:19.716Z,3.90
2018-11-21T14:40:49.204Z,3.90
2018-11-21T14:43:37.412Z,3.90
2018-11-21T14:46:25.973Z,3.80
2018-11-21T14:49:14.417Z,3.70
2018-11-21T14:52:02.663Z,3.60
2018-11-21T14:58:31.710Z,3.50
2018-11-21T15:04:08.248Z,3.50
2018-11-21T15:06:56.824Z,3.50
2018-11-21T15:09:45.035Z,3.60
2018-11-21T15:12:33.595Z,3.60
2018-11-21T15:15:22.566Z,3.60
2018-11-21T15:18:11.262Z,3.50
2018-11-21T15:20:59.643Z,3.60
2018-11-21T15:23:48.453Z,3.70
2018-11-21T15:26:17.631Z,3.70
2018-11-21T15:29:06.445Z,3.50
2018-11-21T15:31:55.394Z,3.50
2018-11-21T15:34:43.829Z,3.50
2018-11-21T15:37:31.973Z,3.50
2018-11-21T15:40:21.929Z,3.50
2018-11-21T15:43:10.878Z,3.50
2018-11-21T15:45:40.739Z,3.40
2018-11-21T15:48:29.255Z,3.40
2018-11-21T15:51:17.772Z,3.60
2018-11-21T15:53:46.808Z,3.80
2018-11-21T15:56:16.102Z,3.70
2018-11-21T15:59:04.778Z,3.60
2018-11-21T16:01:52.907Z,3.50
2018-11-21T16:04:47.897Z,3.50
2018-11-21T16:07:29.928Z,3.60
2018-11-21T16:10:20.096Z,3.50
2018-11-21T16:13:09.008Z,3.50
2018-11-21T16:15:57.679Z,3.60
2018-11-21T16:18:46.213Z,3.60
2018-11-21T16:21:35.087Z,3.50
2018-11-21T16:24:23.172Z,3.40
2018-11-21T16:27:11.513Z,3.30
2018-11-21T16:29:59.861Z,3.50
2018-11-21T16:32:48.801Z,3.40
2018-11-21T16:35:36.878Z,3.40
2018-11-21T16:38:25.196Z,3.40
2018-11-21T16:41:13.891Z,3.50
2018-11-21T16:44:02.259Z,3.50
2018-11-21T16:46:50.720Z,3.50
2018-11-21T16:49:39.374Z,3.50
2018-11-21T16:52:27.859Z,3.50
2018-11-21T16:55:18.090Z,3.50
2018-11-21T16:58:07.021Z,3.50
2018-11-21T17:03:30.440Z,3.60
2018-11-21T17:06:25.666Z,3.50
2018-11-21T17:09:14.103Z,3.60
2018-11-21T17:12:02.185Z,3.50
2018-11-21T17:14:31.577Z,3.60
2018-11-21T17:17:20.514Z,3.50
2018-11-21T17:20:10.829Z,3.50
2018-11-21T17:23:00.276Z,3.60
2018-11-21T17:25:49.203Z,3.70
2018-11-21T17:28:37.696Z,3.70
2018-11-21T17:31:26.413Z,3.60
2018-11-21T17:39:32.315Z,3.60
2018-11-21T17:42:21.088Z,3.60
2018-11-21T17:45:10.196Z,3.60
2018-11-21T17:48:17.737Z,3.60
2018-11-21T17:50:47.418Z,3.60
2018-11-21T17:53:36.090Z,3.50
2018-11-21T17:56:06.048Z,3.50
2018-11-21T17:58:54.593Z,3.60
2018-11-21T18:01:43.554Z,3.60
2018-11-21T18:04:33.103Z,3.70
2018-11-21T18:07:02.907Z,3.60
2018-11-21T18:09:51.282Z,3.60
2018-11-21T18:12:40.174Z,3.60
2018-11-21T18:15:28.794Z,3.60
2018-11-21T18:18:17.874Z,3.60
2018-11-21T18:21:06.824Z,3.60
2018-11-21T18:23:38.528Z,3.60
2018-11-21T18:26:27.083Z,3.60
2018-11-21T18:29:16.044Z,3.60
2018-11-21T18:31:45.630Z,3.60
2018-11-21T18:34:34.181Z,3.60
2018-11-21T18:37:23.016Z,3.60
2018-11-21T18:40:13.042Z,3.70
2018-11-21T18:43:01.628Z,3.80
2018-11-21T18:45:51.049Z,3.60
2018-11-21T18:48:39.871Z,3.60
2018-11-21T18:51:28.090Z,3.60
2018-11-21T18:53:57.790Z,3.60
2018-11-21T18:57:05.371Z,3.60
2018-11-21T18:59:56.370Z,3.60
2018-11-21T19:02:45.251Z,3.60
2018-11-21T19:05:36.054Z,3.50
2018-11-21T19:08:25.564Z,3.50
2018-11-21T19:11:14.648Z,3.50
2018-11-21T19:13:44.376Z,3.50
2018-11-21T19:16:33.455Z,3.50
2018-11-21T19:19:22.122Z,3.50
2018-11-21T19:22:10.828Z,3.50
2018-11-21T19:25:02.231Z,3.60
2018-11-21T19:27:50.985Z,3.50
2018-11-21T19:30:39.902Z,3.60
2018-11-21T19:33:10.485Z,3.60
2018-11-21T19:35:59.762Z,3.60
2018-11-21T19:38:48.175Z,3.60
2018-11-21T19:41:18.732Z,3.50
2018-11-21T19:44:07.760Z,3.60
2018-11-21T19:46:56.609Z,3.60
2018-11-21T19:49:44.992Z,3.60
2018-11-21T19:55:41.169Z,3.60
2018-11-21T19:58:10.813Z,3.60
2018-11-21T20:00:59.281Z,3.60
2018-11-21T20:03:48.057Z,3.60
2018-11-21T20:06:17.135Z,3.60
2018-11-21T20:08:47.335Z,3.60
2018-11-21T20:11:36.145Z,3.60
2018-11-21T20:14:17.102Z,3.60
2018-11-21T20:16:58.169Z,3.60
2018-11-21T20:19:28.308Z,3.70
2018-11-21T20:22:16.783Z,3.60
2018-11-21T20:25:06.226Z,3.70
2018-11-21T20:27:54.855Z,3.70
2018-11-21T20:30:43.827Z,3.80
2018-11-21T20:33:33.194Z,3.90
2018-11-21T20:36:22.252Z,3.80
2018-11-21T20:38:52.301Z,3.80
2018-11-21T20:41:21.691Z,3.80
2018-11-21T20:43:51.652Z,3.70
2018-11-21T20:49:36.086Z,3.80
2018-11-21T20:52:24.915Z,3.70
2018-11-21T20:55:14.521Z,3.70
2018-11-21T20:58:03.657Z,3.70
2018-11-21T21:00:52.497Z,3.70
2018-11-21T21:03:41.134Z,3.70
2018-11-21T21:06:29.849Z,3.70
2018-11-21T21:14:35.974Z,3.70
2018-11-21T21:17:24.987Z,3.70
2018-11-21T21:20:14.825Z,3.70
2018-11-21T21:23:03.026Z,3.60
2018-11-21T21:25:51.154Z,3.70
2018-11-21T21:28:39.298Z,3.70
2018-11-21T21:31:27.752Z,3.70
2018-11-21T21:34:16.594Z,3.60
2018-11-21T21:37:05.491Z,3.60
2018-11-21T21:39:54.744Z,3.70
2018-11-21T21:42:24.119Z,3.60
2018-11-21T21:45:14.516Z,3.60
2018-11-21T21:48:03.424Z,3.70
2018-11-21T21:50:51.678Z,3.70
2018-11-21T21:53:40.588Z,3.60
2018-11-21T21:56:29.190Z,3.60
2018-11-21T21:59:17.692Z,3.60
2018-11-21T22:02:01.761Z,3.60
2018-11-21T22:04:31.299Z,3.70
2018-11-21T22:07:59.535Z,3.70
2018-11-21T22:10:49.041Z,3.70
2018-11-21T22:13:37.708Z,3.60
2018-11-21T22:16:07.888Z,3.60
2018-11-21T22:18:56.817Z,3.60
2018-11-21T22:21:26.954Z,3.60
2018-11-21T22:27:25.787Z,3.60
2018-11-21T22:30:15.131Z,3.60
2018-11-21T22:33:04.211Z,3.60
2018-11-21T22:35:53.146Z,3.60
2018-11-21T22:38:41.741Z,3.50
2018-11-21T22:41:11.938Z,3.60
2018-11-21T22:44:00.526Z,3.60
2018-11-21T22:46:49.449Z,3.50
2018-11-21T22:49:38.399Z,3.60
2018-11-21T22:52:08.370Z,3.60
2018-11-21T22:54:57.412Z,3.60
2018-11-21T22:57:46.559Z,3.50
2018-11-21T23:00:53.770Z,3.50
2018-11-21T23:03:42.447Z,3.50
2018-11-21T23:06:30.372Z,3.60
2018-11-21T23:09:18.947Z,3.60
2018-11-21T23:11:59.446Z,3.60
2018-11-21T23:14:29.672Z,3.60
2018-11-21T23:16:59.589Z,3.50
2018-11-21T23:19:29.861Z,3.60
2018-11-21T23:22:18.062Z,3.60
2018-11-21T23:24:47.649Z,3.50
2018-11-21T23:27:16.916Z,3.50
2018-11-21T23:30:06.611Z,3.50
2018-11-21T23:32:55.126Z,3.50
2018-11-21T23:35:43.999Z,3.50
2018-11-21T23:38:32.860Z,3.50
2018-11-21T23:43:57.008Z,3.60
2018-11-21T23:46:45.935Z,3.60
2018-11-21T23:49:15.942Z,3.70
2018-11-21T23:52:04.510Z,3.60
2018-11-21T23:54:52.781Z,3.60
2018-11-21T23:57:41.012Z,3.50
